Eastport, New York
Current Conditions -  °F | °C
As of 1:53 PM on Thursday 27 Nov 2014 (Local Time) from KFOK Reporting Station
Overcast Overcast  
Wind Chill: 32°   Ceiling: 1800
Heat Index: 38°   Visibility: 10mi
Dew Point: 32°   Wind: 8mph
Humidity: 79%   Direction: 330°NNW
Pressure: 29.97"   Gusts: NA
Location:  40.83°N, 72.73°W
Report Text: KFOK 271853Z 33007KT 10SM OVC018 03/00 A2997 RMK AO2 SLP148 T00330000
Loading
Personal Weather Stations






























Interactive Weather Map New forecast layout! Learn more

10-Day Weather Forecast

Advertisements
Track Severe Weather on mobile